world map with LYX marked

LYX - Airport

This information may not be accurate or current and is not valid for navigation or flight planning. No warranty of fitness for any purpose is made or implied.

flag of Englandflag of United Kingdom

Donate via PayPal

Additional information is available on the NEW Great Circle Mapper

Location
City:  Lydd, Kent, England, United Kingdom
Name:London Ashford International (Ferryfield)
ICAO / IATA:EGMD / LYX

Details
Type:Airport (Aerodrome, Airfield)
Latitude:50°57'22"N (50.956111)
Longitude:0°56'21"E (0.939167)
Elevation:13 ft (4 m)
Runways:1
Longest:4938 × 105 ft (1505 × 32 m)

Time
Timezone:UTC+0 (DST+3)
Local Time:

Weather
METAR:EGMD  241650Z 23019KT 9000 BKN005 18/16 Q1014

Related Locations
Nearby:
Farthest:CHT: 11922 mi / 19186 km
Waitangi [Tuuta], CIT, NZ

Find:

   beyond  
but within

Other Information
Maps:
Links:
Sources:

  


 


Great Circle Mapper   Great Circle Mapper
Great Circle Mapper FAQ   Great Circle Mapper FAQ
  Karl's Home Page
KLSē   KLSē Home
   GC on Facebook
Airlines of the World   Airlines of the World
Donate via PayPal


Copyright © 2004-2017, Karl L. Swartz. All rights reserved.
All trademarks mentioned herein belong to their respective owners.

Please see credits for attribution and copyright information.

Karl Swartz <karl@kls2.com>
  Powered by FreeBSD
Valid HTML 4.01!
Labeled with ICRA
hCard Microformat
Geo Microformat